Terminal Aerodrome Forecast
Issued by NWS

Home | Current Version | Previous Version | Text Only | Print | Product List | Glossary On
Versions: 1 2 3 4 5 6 7 8 9 10 11 12 13 14 15 16 17 18 19 20
000
FTUS43 KICT 020520
TAFCNU
TAF
KCNU 020520Z 0206/0306 09005KT P6SM SCT050
     FM020900 10005KT P6SM SCT009 BKN050
     FM021200 13012KT P6SM VCTS BKN050CB
     FM021700 15011KT P6SM SCT025 BKN035
     FM030200 15005KT P6SM SCT040=

USA.gov is the U.S. government's official web portal to all federal, state and local government web resources and services.